Weather at Byron Airport

Public forecast

Using degrees Fahrenheit for public forecast. Weather courtesy of forecast.io.

Closest aviation weather report (METAR) to Byron Airport

Closest report is Livermore Municipal Airport, 12.3 nm (22.9 km) SW. Retrieved 2022/05/22 22:53 UTC (55 minutes ago):

KLVK 222253Z 29009KT 10SM CLR 29/06 A2996 RMK AO2 SLP141 T02890056

Closest aviation forecast (TAF) to Byron Airport

Closest forecast is Livermore Municipal Airport, 12.3 nm (22.9 km) SW. Retrieved 2022/05/22 18:34 UTC (5 hours ago):

TAF KLVK 221732Z 2218/2318 25006KT P6SM FEW250 FM222000 27011KT P6SM FEW250 FM230400 VRB05KT P6SM FEW250 FM231000 00000KT P6SM SKC WS020/35025KT FM231600 VRB05KT P6SM SKC